createdAt,value
2022-12-12T00:00:20.424Z,45.31
2022-12-12T00:00:46.018Z,45.13
2022-12-12T00:01:14.596Z,45.16
2022-12-12T00:01:38.771Z,45.13
2022-12-12T00:02:01.353Z,45.43
2022-12-12T00:02:23.359Z,45.08
2022-12-12T00:02:45.496Z,44.96
2022-12-12T00:03:07.325Z,44.92
2022-12-12T00:03:30.173Z,44.72
2022-12-12T00:03:52.556Z,45.02
2022-12-12T00:04:14.356Z,44.80
2022-12-12T00:04:36.949Z,44.75
2022-12-12T00:04:58.492Z,44.67
2022-12-12T00:05:20.265Z,44.68
2022-12-12T00:05:42.122Z,44.75
2022-12-12T00:06:04.986Z,44.73
2022-12-12T00:06:28.077Z,44.70
2022-12-12T00:06:50.316Z,44.85
2022-12-12T00:07:12.270Z,44.61
2022-12-12T00:07:34.156Z,44.70
2022-12-12T00:07:58.131Z,44.78
2022-12-12T00:08:19.937Z,44.59
2022-12-12T00:08:41.890Z,44.57
2022-12-12T00:09:03.914Z,44.59
2022-12-12T00:09:27.878Z,44.70
2022-12-12T00:09:50.986Z,45.01
2022-12-12T00:10:12.872Z,44.78
2022-12-12T00:10:35.873Z,45.00
2022-12-12T00:10:58.500Z,45.11
2022-12-12T00:11:20.581Z,45.18
2022-12-12T00:11:42.503Z,44.99
2022-12-12T00:12:05.007Z,44.69
2022-12-12T00:12:27.708Z,44.93
2022-12-12T00:12:49.801Z,45.10
2022-12-12T00:13:13.330Z,45.11
2022-12-12T00:13:35.388Z,45.02
2022-12-12T00:13:58.094Z,44.96
2022-12-12T00:14:19.712Z,44.90
2022-12-12T00:14:41.379Z,44.73
2022-12-12T00:15:03.858Z,44.68
2022-12-12T00:15:27.783Z,44.76
2022-12-12T00:15:49.795Z,44.42
2022-12-12T00:16:12.354Z,44.82
2022-12-12T00:16:35.142Z,44.89
2022-12-12T00:16:56.879Z,44.85
2022-12-12T00:17:18.517Z,44.66
2022-12-12T00:17:40.164Z,44.60
2022-12-12T00:18:02.771Z,44.70
2022-12-12T00:18:24.408Z,44.42
2022-12-12T00:18:46.639Z,44.50
2022-12-12T00:19:09.329Z,44.61
2022-12-12T00:19:31.011Z,44.63
2022-12-12T00:19:52.682Z,44.74
2022-12-12T00:20:14.354Z,44.83
2022-12-12T00:20:35.987Z,44.68
2022-12-12T00:20:59.611Z,44.84
2022-12-12T00:21:23.408Z,45.02
2022-12-12T00:21:45.127Z,44.91
2022-12-12T00:22:06.759Z,45.01
2022-12-12T00:22:29.359Z,44.90
2022-12-12T00:22:50.956Z,44.79
2022-12-12T00:23:12.663Z,45.07
2022-12-12T00:23:34.619Z,44.93
2022-12-12T00:23:58.210Z,45.03
2022-12-12T00:24:19.802Z,44.85
2022-12-12T00:24:41.350Z,44.96
2022-12-12T00:25:04.895Z,44.78
2022-12-12T00:25:27.467Z,44.87
2022-12-12T00:25:54.654Z,44.71
2022-12-12T00:26:19.248Z,44.85
2022-12-12T00:26:40.894Z,44.73
2022-12-12T00:27:03.757Z,44.85
2022-12-12T00:27:25.594Z,45.00
2022-12-12T00:27:47.170Z,45.02
2022-12-12T00:28:08.734Z,44.79
2022-12-12T00:28:31.346Z,44.90
2022-12-12T00:28:53.425Z,44.69
2022-12-12T00:29:15.083Z,44.84
2022-12-12T00:29:36.702Z,44.89
2022-12-12T00:29:59.414Z,44.93
2022-12-12T00:30:21.279Z,45.09
2022-12-12T00:30:42.908Z,44.96
2022-12-12T00:31:04.807Z,44.98
2022-12-12T00:31:28.026Z,45.11
2022-12-12T00:31:49.659Z,44.86
2022-12-12T00:32:11.539Z,44.95
2022-12-12T00:32:33.423Z,44.72
2022-12-12T00:32:55.972Z,44.90
2022-12-12T00:33:17.755Z,44.83
2022-12-12T00:33:39.548Z,44.75
2022-12-12T00:34:01.254Z,44.77
2022-12-12T00:34:23.855Z,44.90
2022-12-12T00:34:45.979Z,44.76
2022-12-12T00:35:08.167Z,44.81
2022-12-12T00:35:29.749Z,44.99
2022-12-12T00:35:53.693Z,44.74
2022-12-12T00:36:16.043Z,45.02
2022-12-12T00:36:37.755Z,44.79
2022-12-12T00:36:59.415Z,45.00
2022-12-12T00:37:22.081Z,45.06
2022-12-12T00:37:43.703Z,44.79
2022-12-12T00:38:05.293Z,44.85
2022-12-12T00:38:26.938Z,44.93
2022-12-12T00:38:49.550Z,44.87
2022-12-12T00:39:16.695Z,45.18
2022-12-12T00:39:40.491Z,45.09
2022-12-12T00:40:05.193Z,45.12
2022-12-12T00:40:26.768Z,44.97
2022-12-12T00:40:49.157Z,44.88
2022-12-12T00:41:11.635Z,44.83
2022-12-12T00:41:34.208Z,44.81
2022-12-12T00:41:55.806Z,45.12
2022-12-12T00:42:17.496Z,45.11
2022-12-12T00:42:39.122Z,45.16
2022-12-12T00:43:00.727Z,45.08
2022-12-12T00:43:23.399Z,45.23
2022-12-12T00:43:44.975Z,45.21
2022-12-12T00:44:06.580Z,45.16
2022-12-12T00:44:28.182Z,45.10
2022-12-12T00:44:50.821Z,44.95
2022-12-12T00:45:12.786Z,45.16
2022-12-12T00:45:34.718Z,45.07
2022-12-12T00:45:58.701Z,45.20
2022-12-12T00:46:24.572Z,45.45
2022-12-12T00:46:46.271Z,45.15
2022-12-12T00:47:08.242Z,45.18
2022-12-12T00:47:29.894Z,45.17
2022-12-12T00:47:52.426Z,44.91
2022-12-12T00:48:14.002Z,45.21
2022-12-12T00:48:35.652Z,44.74
2022-12-12T00:48:59.774Z,44.76
2022-12-12T00:49:21.505Z,44.53
2022-12-12T00:49:43.081Z,44.44
2022-12-12T00:50:06.425Z,44.14
2022-12-12T00:50:29.076Z,44.26
2022-12-12T00:50:50.794Z,44.18
2022-12-12T00:51:17.056Z,43.78
2022-12-12T00:51:39.599Z,43.85
2022-12-12T00:52:01.273Z,43.88
2022-12-12T00:52:22.879Z,43.94
2022-12-12T00:52:44.497Z,43.83
2022-12-12T00:53:07.128Z,44.04
2022-12-12T00:53:28.682Z,44.13
2022-12-12T00:53:51.171Z,44.08
2022-12-12T00:54:12.792Z,44.01
2022-12-12T00:54:35.378Z,44.25
2022-12-12T00:54:57.929Z,44.12
2022-12-12T00:55:21.589Z,44.19
2022-12-12T00:55:43.419Z,43.79
2022-12-12T00:56:07.580Z,43.82
2022-12-12T00:56:29.600Z,43.74
2022-12-12T00:56:51.464Z,43.83
2022-12-12T00:57:13.083Z,43.71
2022-12-12T00:57:35.898Z,43.53
2022-12-12T00:57:57.574Z,43.48
2022-12-12T00:58:19.195Z,43.90
2022-12-12T00:58:40.818Z,43.77
2022-12-12T00:59:04.202Z,43.55
2022-12-12T00:59:25.862Z,43.55
2022-12-12T00:59:47.581Z,43.18
2022-12-12T01:00:13.272Z,43.27
2022-12-12T01:00:38.131Z,43.34
2022-12-12T01:01:06.228Z,42.92
2022-12-12T01:01:30.984Z,43.07
2022-12-12T01:01:53.650Z,42.90
2022-12-12T01:02:15.349Z,42.96
2022-12-12T01:02:37.010Z,42.66
2022-12-12T01:02:59.492Z,42.62
2022-12-12T01:03:23.032Z,42.54
2022-12-12T01:03:45.128Z,42.58
2022-12-12T01:04:07.371Z,42.19
2022-12-12T01:04:29.957Z,42.38
2022-12-12T01:04:51.609Z,42.26
2022-12-12T01:05:14.111Z,42.28
2022-12-12T01:05:35.921Z,42.16
2022-12-12T01:05:58.575Z,42.44
2022-12-12T01:06:20.715Z,42.33
2022-12-12T01:06:42.342Z,42.17
2022-12-12T01:07:05.162Z,42.39
2022-12-12T01:07:26.878Z,42.17
2022-12-12T01:07:48.563Z,42.25
2022-12-12T01:08:10.299Z,42.40
2022-12-12T01:08:32.929Z,42.05
2022-12-12T01:08:54.582Z,42.04
2022-12-12T01:09:16.147Z,42.17
2022-12-12T01:09:37.795Z,42.10
2022-12-12T01:09:59.454Z,42.05
2022-12-12T01:10:23.819Z,41.97
2022-12-12T01:10:45.505Z,42.11
2022-12-12T01:11:08.794Z,41.87
2022-12-12T01:11:31.705Z,41.91
2022-12-12T01:11:53.268Z,42.03
2022-12-12T01:12:14.913Z,41.92
2022-12-12T01:12:36.730Z,41.52
2022-12-12T01:12:59.299Z,41.52
2022-12-12T01:13:20.984Z,41.35
2022-12-12T01:13:43.659Z,41.29
2022-12-12T01:14:05.336Z,41.45
2022-12-12T01:14:27.937Z,41.30
2022-12-12T01:14:50.363Z,41.46
2022-12-12T01:15:12.734Z,41.50
2022-12-12T01:15:34.487Z,41.43
2022-12-12T01:15:57.274Z,41.39
2022-12-12T01:16:19.450Z,41.41
2022-12-12T01:16:43.416Z,41.31
2022-12-12T01:17:06.263Z,41.39
2022-12-12T01:17:27.945Z,41.62
2022-12-12T01:17:49.530Z,41.40
2022-12-12T01:18:11.175Z,41.66
2022-12-12T01:18:34.279Z,41.48
2022-12-12T01:18:56.017Z,41.56
2022-12-12T01:19:17.714Z,41.77
2022-12-12T01:19:40.629Z,41.85
2022-12-12T01:20:02.890Z,41.68
2022-12-12T01:20:26.465Z,41.67
2022-12-12T01:20:48.067Z,41.58
2022-12-12T01:21:12.445Z,41.85
2022-12-12T01:21:34.047Z,42.00
2022-12-12T01:21:55.679Z,42.19
2022-12-12T01:22:17.308Z,42.06
2022-12-12T01:22:39.903Z,41.95
2022-12-12T01:23:01.544Z,42.26
2022-12-12T01:23:23.122Z,42.37
2022-12-12T01:23:45.246Z,42.32
2022-12-12T01:24:07.971Z,42.55
2022-12-12T01:24:29.727Z,42.33
2022-12-12T01:24:51.350Z,42.64
2022-12-12T01:25:14.737Z,42.39
2022-12-12T01:25:39.104Z,42.83
2022-12-12T01:26:01.585Z,42.46
2022-12-12T01:26:24.765Z,42.39
2022-12-12T01:26:47.337Z,42.34
2022-12-12T01:27:09.336Z,42.38
2022-12-12T01:27:30.946Z,42.50
2022-12-12T01:27:52.568Z,42.29
2022-12-12T01:28:15.588Z,42.16
2022-12-12T01:28:37.732Z,42.12
2022-12-12T01:28:59.345Z,42.15
2022-12-12T01:29:20.982Z,42.03
2022-12-12T01:29:43.557Z,41.88
2022-12-12T01:30:06.599Z,42.12
2022-12-12T01:30:29.654Z,42.26
2022-12-12T01:30:51.260Z,42.21
2022-12-12T01:31:14.680Z,42.12
2022-12-12T01:31:36.461Z,41.94
2022-12-12T01:31:58.129Z,41.96
2022-12-12T01:32:19.717Z,41.97
2022-12-12T01:32:42.295Z,42.05
2022-12-12T01:33:04.098Z,42.08
2022-12-12T01:33:25.796Z,42.02
2022-12-12T01:33:47.869Z,42.21
2022-12-12T01:34:10.474Z,42.33
2022-12-12T01:34:32.148Z,42.15
2022-12-12T01:34:53.809Z,42.34
2022-12-12T01:35:15.669Z,42.33
2022-12-12T01:35:38.500Z,42.14
2022-12-12T01:36:55.938Z,42.06
2022-12-12T01:37:18.678Z,42.45
2022-12-12T01:37:41.350Z,42.15
2022-12-12T01:38:04.755Z,42.74
2022-12-12T01:38:27.717Z,42.82
2022-12-12T01:38:52.571Z,42.60
2022-12-12T01:39:14.149Z,42.64
2022-12-12T01:39:35.769Z,42.61
2022-12-12T01:39:58.381Z,42.51
2022-12-12T01:40:22.199Z,42.30
2022-12-12T01:40:45.178Z,42.71
2022-12-12T01:41:07.783Z,42.62
2022-12-12T01:41:29.410Z,42.26
2022-12-12T01:41:50.999Z,42.46
2022-12-12T01:42:14.210Z,42.24
2022-12-12T01:42:36.807Z,42.42
2022-12-12T01:42:59.546Z,42.41
2022-12-12T01:43:23.789Z,42.70
2022-12-12T01:43:47.027Z,42.52
2022-12-12T01:44:38.411Z,42.53
2022-12-12T01:45:00.021Z,42.44
2022-12-12T01:46:05.647Z,42.75
2022-12-12T01:46:40.761Z,42.63
2022-12-12T01:47:03.360Z,42.52
2022-12-12T01:47:25.921Z,42.77
2022-12-12T01:47:47.519Z,42.97
2022-12-12T01:48:09.119Z,43.11
2022-12-12T01:48:33.802Z,43.08
2022-12-12T01:48:59.896Z,43.44
2022-12-12T01:49:24.610Z,43.31
2022-12-12T01:49:50.731Z,43.56
2022-12-12T01:50:12.416Z,43.40
2022-12-12T01:50:34.006Z,43.52
2022-12-12T01:50:57.683Z,43.36
2022-12-12T01:51:24.265Z,43.59
2022-12-12T01:51:48.810Z,43.64
2022-12-12T01:52:13.752Z,43.49
2022-12-12T01:52:43.568Z,43.41
2022-12-12T01:53:05.187Z,43.21
2022-12-12T01:53:30.511Z,43.16
2022-12-12T01:53:57.921Z,43.23
2022-12-12T01:54:24.229Z,43.03
2022-12-12T01:54:51.942Z,43.49
2022-12-12T01:55:20.253Z,43.35
2022-12-12T01:55:42.617Z,43.19
2022-12-12T01:56:12.347Z,43.20
2022-12-12T01:56:36.398Z,43.23
2022-12-12T01:57:00.897Z,43.24
2022-12-12T01:57:27.533Z,43.29
2022-12-12T01:57:53.461Z,43.19
2022-12-12T01:58:16.125Z,43.50
2022-12-12T01:58:39.709Z,43.44
2022-12-12T01:59:05.160Z,43.67
2022-12-12T01:59:29.185Z,43.80
2022-12-12T01:59:50.898Z,44.11
2022-12-12T02:00:13.902Z,43.83
2022-12-12T02:00:40.027Z,44.13
2022-12-12T02:01:02.130Z,44.24
2022-12-12T02:01:25.133Z,44.02
2022-12-12T02:01:46.944Z,43.98
2022-12-12T02:02:09.649Z,44.11
2022-12-12T02:02:32.433Z,44.16
2022-12-12T02:02:55.876Z,43.98
2022-12-12T02:03:17.556Z,44.01
2022-12-12T02:03:40.489Z,44.09
2022-12-12T02:04:02.895Z,43.96
2022-12-12T02:04:27.850Z,44.46
2022-12-12T02:04:49.586Z,44.24
2022-12-12T02:05:18.375Z,44.40
2022-12-12T02:05:44.267Z,44.21
2022-12-12T02:06:09.055Z,44.36
2022-12-12T02:06:31.930Z,43.99
2022-12-12T02:06:55.136Z,44.04
2022-12-12T02:07:17.821Z,43.99
2022-12-12T02:07:39.418Z,44.00
2022-12-12T02:08:04.005Z,44.04
2022-12-12T02:08:26.270Z,44.17
2022-12-12T02:08:49.722Z,44.40
2022-12-12T02:09:14.697Z,44.47
2022-12-12T02:09:37.770Z,44.43
2022-12-12T02:09:59.381Z,44.26
2022-12-12T02:10:21.374Z,44.41
2022-12-12T02:10:45.542Z,44.40
2022-12-12T02:11:08.766Z,44.23
2022-12-12T02:11:32.135Z,43.99
2022-12-12T02:11:56.269Z,44.17
2022-12-12T02:12:17.955Z,44.20
2022-12-12T02:12:39.782Z,44.11
2022-12-12T02:13:06.656Z,44.18
2022-12-12T02:13:31.646Z,44.26
2022-12-12T02:13:53.286Z,44.31
2022-12-12T02:14:19.606Z,44.28
2022-12-12T02:14:45.366Z,44.17
2022-12-12T02:15:07.835Z,44.34
2022-12-12T02:15:39.332Z,44.44
2022-12-12T02:16:09.716Z,44.43
2022-12-12T02:16:46.406Z,44.31
2022-12-12T02:17:29.236Z,44.58
2022-12-12T02:18:03.891Z,44.48
2022-12-12T02:18:35.505Z,44.35
2022-12-12T02:19:05.544Z,44.76
2022-12-12T02:20:04.919Z,44.84
2022-12-12T02:21:04.691Z,44.60
2022-12-12T02:21:33.137Z,44.48
2022-12-12T02:22:02.553Z,44.69
2022-12-12T02:22:40.117Z,44.49
2022-12-12T02:23:31.308Z,44.67
2022-12-12T02:24:34.641Z,44.68
2022-12-12T02:25:22.530Z,44.68
2022-12-12T02:26:04.985Z,44.52
2022-12-12T02:27:03.909Z,44.14
2022-12-12T02:28:00.673Z,44.35
2022-12-12T02:29:02.858Z,44.25
2022-12-12T02:30:03.643Z,44.03
2022-12-12T02:30:36.962Z,43.76
2022-12-12T02:31:16.389Z,43.50
2022-12-12T02:31:44.219Z,43.29
2022-12-12T02:32:12.017Z,43.63
2022-12-12T02:32:46.832Z,43.42
2022-12-12T02:33:37.698Z,43.41
2022-12-12T02:34:03.063Z,43.59
2022-12-12T02:34:33.324Z,43.56
2022-12-12T02:35:04.897Z,43.69
2022-12-12T02:35:35.508Z,43.65
2022-12-12T02:36:13.135Z,43.83
2022-12-12T02:36:43.354Z,43.77
2022-12-12T02:37:11.966Z,44.11
2022-12-12T02:37:42.167Z,44.06
2022-12-12T02:38:47.047Z,44.21
2022-12-12T02:39:19.436Z,44.41
2022-12-12T02:39:48.019Z,44.21
2022-12-12T02:40:19.530Z,44.04
2022-12-12T02:40:51.194Z,43.90
2022-12-12T02:41:18.046Z,43.78
2022-12-12T02:41:43.750Z,43.74
2022-12-12T02:42:12.172Z,43.97
2022-12-12T02:42:41.922Z,43.92
2022-12-12T02:43:09.377Z,43.99
2022-12-12T02:43:37.713Z,44.13
2022-12-12T02:44:09.764Z,43.92
2022-12-12T02:44:35.890Z,43.86
2022-12-12T02:45:02.296Z,43.93
2022-12-12T02:45:28.032Z,44.10
2022-12-12T02:45:57.630Z,43.94
2022-12-12T02:46:26.456Z,44.14
2022-12-12T02:46:55.518Z,44.16
2022-12-12T02:47:22.275Z,44.18
2022-12-12T02:47:48.378Z,43.97
2022-12-12T02:48:15.010Z,44.07
2022-12-12T02:48:40.847Z,44.08
2022-12-12T02:49:07.934Z,44.19
2022-12-12T02:49:35.334Z,44.21
2022-12-12T02:50:03.226Z,44.10
2022-12-12T02:50:28.148Z,44.18
2022-12-12T02:50:54.406Z,44.06
2022-12-12T02:51:17.876Z,43.72
2022-12-12T02:51:41.300Z,43.45
2022-12-12T02:52:03.833Z,43.77
2022-12-12T02:52:25.985Z,43.63
2022-12-12T02:52:48.377Z,43.47
2022-12-12T02:53:11.066Z,43.03
2022-12-12T02:53:32.727Z,43.13
2022-12-12T02:53:54.350Z,42.98
2022-12-12T02:54:18.334Z,42.95
2022-12-12T02:54:40.963Z,43.14
2022-12-12T02:55:03.281Z,42.93
2022-12-12T02:55:24.950Z,42.76
2022-12-12T02:55:47.929Z,42.56
2022-12-12T02:56:43.538Z,42.33
2022-12-12T02:57:15.279Z,42.33
2022-12-12T02:57:41.575Z,42.12
2022-12-12T02:58:05.465Z,42.20
2022-12-12T02:58:27.246Z,42.21
2022-12-12T02:58:49.083Z,42.23
2022-12-12T02:59:14.599Z,42.14
2022-12-12T02:59:40.078Z,42.03
2022-12-12T03:00:06.019Z,42.10
2022-12-12T03:00:34.549Z,42.26
2022-12-12T03:01:19.270Z,42.16
2022-12-12T03:02:04.255Z,42.29
2022-12-12T03:03:16.483Z,41.88
2022-12-12T03:04:03.068Z,41.66
2022-12-12T03:04:47.410Z,41.62
2022-12-12T03:05:56.206Z,42.00
2022-12-12T03:06:49.777Z,42.16
2022-12-12T03:07:41.672Z,42.53
2022-12-12T03:08:12.591Z,42.40
2022-12-12T03:08:47.867Z,42.31
2022-12-12T03:09:21.485Z,42.00
2022-12-12T03:10:00.551Z,41.84
2022-12-12T03:10:34.623Z,42.53
2022-12-12T03:10:59.777Z,42.20
2022-12-12T03:11:35.046Z,42.13
2022-12-12T03:12:05.144Z,42.18
2022-12-12T03:12:37.132Z,42.35
2022-12-12T03:13:10.181Z,42.30
2022-12-12T03:13:40.391Z,42.57
2022-12-12T03:14:10.434Z,42.59
2022-12-12T03:14:46.265Z,42.42
2022-12-12T03:15:16.629Z,42.56
2022-12-12T03:15:44.924Z,42.09
2022-12-12T03:16:20.164Z,41.96
2022-12-12T03:16:52.804Z,41.73
2022-12-12T03:17:22.463Z,42.06
2022-12-12T03:17:55.601Z,42.19
2022-12-12T03:18:26.547Z,42.13
2022-12-12T03:18:57.768Z,42.09
2022-12-12T03:19:29.346Z,41.93
2022-12-12T03:20:00.054Z,42.09
2022-12-12T03:20:26.888Z,42.25
2022-12-12T03:20:54.876Z,41.96
2022-12-12T03:21:22.584Z,42.04
2022-12-12T03:21:49.409Z,42.15
2022-12-12T03:22:17.881Z,42.10
2022-12-12T03:22:46.301Z,41.94
2022-12-12T03:23:12.749Z,41.92
2022-12-12T03:23:40.494Z,41.99
2022-12-12T03:24:07.089Z,42.11
2022-12-12T03:24:35.497Z,42.15
2022-12-12T03:25:04.357Z,41.86
2022-12-12T03:25:34.463Z,42.45
2022-12-12T03:26:01.089Z,42.22
2022-12-12T03:26:28.463Z,42.11
2022-12-12T03:26:55.792Z,42.22
2022-12-12T03:27:23.166Z,42.13
2022-12-12T03:27:51.173Z,42.07
2022-12-12T03:28:19.343Z,42.11
2022-12-12T03:28:46.760Z,42.29
2022-12-12T03:29:11.471Z,42.58
2022-12-12T03:29:38.251Z,42.49
2022-12-12T03:30:04.165Z,42.36
2022-12-12T03:30:27.999Z,42.33
2022-12-12T03:30:55.263Z,42.31
2022-12-12T03:31:21.345Z,42.70
2022-12-12T03:31:50.546Z,42.69
2022-12-12T03:32:17.271Z,42.75
2022-12-12T03:32:45.385Z,42.76
2022-12-12T03:33:15.455Z,42.69
2022-12-12T03:33:42.587Z,42.99
2022-12-12T03:34:08.021Z,42.66
2022-12-12T03:34:35.629Z,42.81
2022-12-12T03:35:04.007Z,42.77
2022-12-12T03:35:28.902Z,42.69
2022-12-12T03:35:56.280Z,42.80
2022-12-12T03:36:25.634Z,43.04
2022-12-12T03:36:52.450Z,42.93
2022-12-12T03:37:19.711Z,42.98
2022-12-12T03:37:46.987Z,43.35
2022-12-12T03:38:14.185Z,43.13
2022-12-12T03:38:39.983Z,43.18
2022-12-12T03:39:07.516Z,43.09
2022-12-12T03:39:34.853Z,42.71
2022-12-12T03:39:59.566Z,42.83
2022-12-12T03:40:27.862Z,42.67
2022-12-12T03:40:53.452Z,42.99
2022-12-12T03:41:20.349Z,42.86
2022-12-12T03:41:44.778Z,42.74
2022-12-12T03:42:13.524Z,42.52
2022-12-12T03:42:40.208Z,42.64
2022-12-12T03:43:08.882Z,42.62
2022-12-12T03:43:34.876Z,43.02
2022-12-12T03:44:03.863Z,42.70
2022-12-12T03:44:29.277Z,42.40
2022-12-12T03:44:55.296Z,41.71
2022-12-12T03:45:25.520Z,41.84
2022-12-12T03:45:55.063Z,41.74
2022-12-12T03:46:20.808Z,41.77
2022-12-12T03:46:48.706Z,41.90
2022-12-12T03:47:13.727Z,41.43
2022-12-12T03:47:41.229Z,41.56
2022-12-12T03:48:08.288Z,41.52
2022-12-12T03:48:34.607Z,41.46
2022-12-12T03:49:01.039Z,41.74
2022-12-12T03:49:28.499Z,42.15
2022-12-12T03:49:55.253Z,42.24
2022-12-12T03:50:21.437Z,42.23
2022-12-12T03:50:45.429Z,42.12
2022-12-12T03:51:11.876Z,41.96
2022-12-12T03:51:38.021Z,41.85
2022-12-12T03:52:07.370Z,41.61
2022-12-12T03:52:33.509Z,41.26
2022-12-12T03:52:59.418Z,41.38
2022-12-12T03:53:27.340Z,41.67
2022-12-12T03:53:57.713Z,41.47
2022-12-12T03:54:25.648Z,41.42
2022-12-12T03:54:51.105Z,41.85
2022-12-12T03:55:16.391Z,41.51
2022-12-12T03:55:44.805Z,42.01
2022-12-12T03:56:13.826Z,41.67
2022-12-12T03:56:43.709Z,41.82
2022-12-12T03:57:10.955Z,41.91
2022-12-12T03:57:38.644Z,41.75
2022-12-12T03:58:05.237Z,41.62
2022-12-12T03:58:31.515Z,41.92
2022-12-12T03:58:59.407Z,41.77
2022-12-12T03:59:27.475Z,41.78
2022-12-12T03:59:55.501Z,41.50
2022-12-12T04:00:18.089Z,42.13
2022-12-12T04:00:42.188Z,41.73
2022-12-12T04:01:10.239Z,41.80
2022-12-12T04:01:39.736Z,42.13
2022-12-12T04:02:11.799Z,42.24
2022-12-12T04:02:41.042Z,42.31
2022-12-12T04:03:08.318Z,42.10
2022-12-12T04:03:35.846Z,42.09
2022-12-12T04:04:04.019Z,42.43
2022-12-12T04:04:32.711Z,42.37
2022-12-12T04:05:02.277Z,42.06
2022-12-12T04:05:29.417Z,42.27
2022-12-12T04:06:16.439Z,42.39
2022-12-12T04:06:41.972Z,42.14
2022-12-12T04:07:10.659Z,42.15
2022-12-12T04:07:37.148Z,41.86
2022-12-12T04:08:04.591Z,42.40
2022-12-12T04:08:27.550Z,42.18
2022-12-12T04:09:08.361Z,42.19
2022-12-12T04:09:49.165Z,42.12
2022-12-12T04:10:30.640Z,41.90
2022-12-12T04:11:15.866Z,41.86
2022-12-12T04:12:00.697Z,41.86
2022-12-12T04:12:49.431Z,41.85
2022-12-12T04:13:16.875Z,41.97
2022-12-12T04:13:47.581Z,42.31
2022-12-12T04:14:24.893Z,42.26
2022-12-12T04:15:13.797Z,42.04
2022-12-12T04:15:47.453Z,41.82
2022-12-12T04:16:11.971Z,42.44
2022-12-12T04:16:40.798Z,41.97
2022-12-12T04:17:05.897Z,41.93
2022-12-12T04:17:36.877Z,41.70
2022-12-12T04:18:13.307Z,41.60
2022-12-12T04:18:41.489Z,41.62
2022-12-12T04:19:08.954Z,42.02
2022-12-12T04:19:55.272Z,41.77
2022-12-12T04:20:43.070Z,42.09
2022-12-12T04:21:51.095Z,41.61
2022-12-12T04:22:40.200Z,41.47
2022-12-12T04:23:18.187Z,41.47
2022-12-12T04:23:51.353Z,41.34
2022-12-12T04:24:22.086Z,41.39
2022-12-12T04:24:48.294Z,41.63
2022-12-12T04:25:21.317Z,41.66
2022-12-12T04:26:16.594Z,41.62
2022-12-12T04:26:44.531Z,41.69
2022-12-12T04:27:14.775Z,41.70
2022-12-12T04:27:41.459Z,41.50
2022-12-12T04:28:07.466Z,41.46
2022-12-12T04:28:32.459Z,41.23
2022-12-12T04:29:01.458Z,41.41
2022-12-12T04:29:30.434Z,41.22
2022-12-12T04:30:01.263Z,41.49
2022-12-12T04:30:22.988Z,41.53
2022-12-12T04:30:44.646Z,41.23
2022-12-12T04:31:07.701Z,41.32
2022-12-12T04:31:33.129Z,41.38
2022-12-12T04:31:59.775Z,41.59
2022-12-12T04:32:28.400Z,41.14
2022-12-12T04:32:58.230Z,41.32
2022-12-12T04:33:21.819Z,41.16
2022-12-12T04:33:50.150Z,41.90
2022-12-12T04:34:17.775Z,41.86
2022-12-12T04:34:45.271Z,41.18
2022-12-12T04:35:13.178Z,41.12
2022-12-12T04:35:38.870Z,41.32
2022-12-12T04:36:02.289Z,41.25
2022-12-12T04:36:26.904Z,41.48
2022-12-12T04:36:49.792Z,41.23
2022-12-12T04:37:15.856Z,40.89
2022-12-12T04:37:43.617Z,40.88
2022-12-12T04:38:08.342Z,41.03
2022-12-12T04:38:30.082Z,41.00
2022-12-12T04:38:53.026Z,40.87
2022-12-12T04:39:19.538Z,40.90
2022-12-12T04:39:43.497Z,40.48
2022-12-12T04:40:09.000Z,40.88
2022-12-12T04:40:34.899Z,40.97
2022-12-12T04:41:00.450Z,41.25
2022-12-12T04:41:23.036Z,41.48
2022-12-12T04:41:46.754Z,41.05
2022-12-12T04:42:14.401Z,41.12
2022-12-12T04:42:41.798Z,40.86
2022-12-12T04:43:07.055Z,40.94
2022-12-12T04:43:33.179Z,40.78
2022-12-12T04:43:57.351Z,41.04
2022-12-12T04:44:22.466Z,40.70
2022-12-12T04:44:45.526Z,40.93
2022-12-12T04:45:12.413Z,40.94
2022-12-12T04:45:38.250Z,40.98
2022-12-12T04:46:04.905Z,41.32
2022-12-12T04:46:33.144Z,41.01
2022-12-12T04:46:57.293Z,41.48
2022-12-12T04:47:20.490Z,41.32
2022-12-12T04:47:47.310Z,40.91
2022-12-12T04:48:15.601Z,40.89
2022-12-12T04:48:43.907Z,40.83
2022-12-12T04:49:12.090Z,40.92
2022-12-12T04:49:36.712Z,40.62
2022-12-12T04:50:01.050Z,41.12
2022-12-12T04:50:25.435Z,40.96
2022-12-12T04:50:50.565Z,40.84
2022-12-12T04:51:15.478Z,41.31
2022-12-12T04:51:42.530Z,41.26
2022-12-12T04:52:08.134Z,41.10
2022-12-12T04:52:32.951Z,41.07
2022-12-12T04:52:58.865Z,41.19
2022-12-12T04:53:28.724Z,41.32
2022-12-12T04:53:55.806Z,41.05
2022-12-12T04:54:25.030Z,41.49
2022-12-12T04:54:52.065Z,41.14
2022-12-12T04:55:19.170Z,41.42
2022-12-12T04:55:44.290Z,41.79
2022-12-12T04:56:11.410Z,41.20
2022-12-12T04:56:37.152Z,41.24
2022-12-12T04:57:02.748Z,41.61
2022-12-12T04:57:27.620Z,41.41
2022-12-12T04:57:54.796Z,41.19
2022-12-12T04:58:17.354Z,40.84
2022-12-12T04:58:40.159Z,41.17
2022-12-12T04:59:02.938Z,41.19
2022-12-12T04:59:25.727Z,41.16
2022-12-12T04:59:48.192Z,41.17
2022-12-12T05:00:12.599Z,41.04
2022-12-12T05:00:42.538Z,40.88
2022-12-12T05:01:09.602Z,40.95
2022-12-12T05:01:38.224Z,41.06
2022-12-12T05:02:05.767Z,40.79
2022-12-12T05:02:34.776Z,40.88
2022-12-12T05:03:06.054Z,40.75
2022-12-12T05:03:35.105Z,41.04
2022-12-12T05:04:00.953Z,40.96
2022-12-12T05:04:29.974Z,40.98
2022-12-12T05:04:58.602Z,40.89
2022-12-12T05:05:26.381Z,41.06
2022-12-12T05:05:53.563Z,40.97
2022-12-12T05:06:19.779Z,41.28
2022-12-12T05:06:46.097Z,41.06
2022-12-12T05:07:11.147Z,41.14
2022-12-12T05:07:40.018Z,40.99
2022-12-12T05:08:07.702Z,40.94
2022-12-12T05:08:33.376Z,40.87
2022-12-12T05:08:57.019Z,40.88
2022-12-12T05:09:19.570Z,41.23
2022-12-12T05:09:41.326Z,41.17
2022-12-12T05:10:07.051Z,41.24
2022-12-12T05:10:29.118Z,41.40
2022-12-12T05:10:54.198Z,41.06
2022-12-12T05:11:19.012Z,40.91
2022-12-12T05:11:43.299Z,41.06
2022-12-12T05:12:05.392Z,40.82
2022-12-12T05:12:27.219Z,40.92
2022-12-12T05:12:50.814Z,41.11
2022-12-12T05:13:17.911Z,41.08
2022-12-12T05:13:42.114Z,41.53
2022-12-12T05:14:03.850Z,41.71
2022-12-12T05:14:25.460Z,41.61
2022-12-12T05:14:49.195Z,41.46
2022-12-12T05:15:12.472Z,41.43
2022-12-12T05:15:34.298Z,41.64
2022-12-12T05:15:58.569Z,41.18
2022-12-12T05:16:24.913Z,40.94
2022-12-12T05:16:49.362Z,40.72
2022-12-12T05:17:17.098Z,41.09
2022-12-12T05:17:44.250Z,40.93
2022-12-12T05:18:08.977Z,40.81
2022-12-12T05:18:31.204Z,41.11
2022-12-12T05:18:53.117Z,40.80
2022-12-12T05:19:15.844Z,40.93
2022-12-12T05:19:37.512Z,40.89
2022-12-12T05:19:59.137Z,40.66
2022-12-12T05:20:21.655Z,40.49
2022-12-12T05:20:44.264Z,40.71
2022-12-12T05:21:05.926Z,40.70
2022-12-12T05:21:27.852Z,40.96
2022-12-12T05:21:49.517Z,40.86
2022-12-12T05:22:12.081Z,40.79
2022-12-12T05:22:33.639Z,41.03
2022-12-12T05:22:55.209Z,41.13
2022-12-12T05:23:17.040Z,41.13
2022-12-12T05:23:39.763Z,41.19
2022-12-12T05:24:02.034Z,41.25
2022-12-12T05:24:23.609Z,40.83
2022-12-12T05:24:45.174Z,41.10
2022-12-12T05:25:08.423Z,40.76
2022-12-12T05:25:30.169Z,40.88
2022-12-12T05:25:51.771Z,40.64
2022-12-12T05:26:26.312Z,41.01
2022-12-12T05:26:48.875Z,40.90
2022-12-12T05:27:12.427Z,40.95
2022-12-12T05:27:34.589Z,40.73
2022-12-12T05:27:56.469Z,40.97
2022-12-12T05:28:19.059Z,40.96
2022-12-12T05:28:40.595Z,40.80
2022-12-12T05:29:07.261Z,40.67
2022-12-12T05:29:31.944Z,40.84
2022-12-12T05:29:53.537Z,40.86
2022-12-12T05:30:15.588Z,40.81
2022-12-12T05:30:37.354Z,40.71
2022-12-12T05:31:00.039Z,40.65
2022-12-12T05:31:21.891Z,40.71
2022-12-12T05:31:43.516Z,40.61
2022-12-12T05:32:06.245Z,40.89
2022-12-12T05:32:27.872Z,40.51
2022-12-12T05:32:49.533Z,40.62
2022-12-12T05:33:12.482Z,40.92
2022-12-12T05:33:35.092Z,40.76
2022-12-12T05:33:56.650Z,40.71
2022-12-12T05:34:18.480Z,40.56
2022-12-12T05:34:40.144Z,41.08
2022-12-12T05:35:02.746Z,40.68
2022-12-12T05:35:24.885Z,40.72
2022-12-12T05:35:46.475Z,40.68
2022-12-12T05:36:08.607Z,40.70
2022-12-12T05:36:31.355Z,40.75
2022-12-12T05:36:52.978Z,40.40
2022-12-12T05:37:14.550Z,40.24
2022-12-12T05:37:36.206Z,40.15
2022-12-12T05:37:57.802Z,40.42